sensor_id;sensor_type;location;lat;lon;timestamp;temperature;humidity
50758;DHT22;36732;47.980;11.652;2023-07-09T00:02:20;24.10;52.50
50758;DHT22;36732;47.980;11.652;2023-07-09T00:04:47;24.00;52.20
50758;DHT22;36732;47.980;11.652;2023-07-09T00:07:31;24.00;52.20
50758;DHT22;36732;47.980;11.652;2023-07-09T00:09:58;24.00;52.50
50758;DHT22;36732;47.980;11.652;2023-07-09T00:12:25;24.00;52.40
50758;DHT22;36732;47.980;11.652;2023-07-09T00:14:51;24.00;52.40
50758;DHT22;36732;47.980;11.652;2023-07-09T00:17:27;24.00;52.40
50758;DHT22;36732;47.980;11.652;2023-07-09T00:19:55;23.90;52.70
50758;DHT22;36732;47.980;11.652;2023-07-09T00:22:22;24.00;52.60
50758;DHT22;36732;47.980;11.652;2023-07-09T00:24:50;23.90;52.60
50758;DHT22;36732;47.980;11.652;2023-07-09T00:27:21;23.90;52.60
50758;DHT22;36732;47.980;11.652;2023-07-09T00:29:47;23.90;52.70
50758;DHT22;36732;47.980;11.652;2023-07-09T00:32:18;23.90;52.60
50758;DHT22;36732;47.980;11.652;2023-07-09T00:34:48;23.90;52.80
50758;DHT22;36732;47.980;11.652;2023-07-09T00:37:19;23.80;52.70
50758;DHT22;36732;47.980;11.652;2023-07-09T00:39:47;23.90;52.90
50758;DHT22;36732;47.980;11.652;2023-07-09T00:42:15;23.90;52.80
50758;DHT22;36732;47.980;11.652;2023-07-09T00:44:49;23.80;52.80
50758;DHT22;36732;47.980;11.652;2023-07-09T00:47:28;23.80;52.90
50758;DHT22;36732;47.980;11.652;2023-07-09T00:50:06;23.80;53.20
50758;DHT22;36732;47.980;11.652;2023-07-09T00:52:46;23.80;53.20
50758;DHT22;36732;47.980;11.652;2023-07-09T00:55:23;23.80;53.20
50758;DHT22;36732;47.980;11.652;2023-07-09T00:57:53;23.80;53.20
50758;DHT22;36732;47.980;11.652;2023-07-09T01:00:30;23.80;53.20
50758;DHT22;36732;47.980;11.652;2023-07-09T01:03:10;23.80;53.40
50758;DHT22;36732;47.980;11.652;2023-07-09T01:05:38;23.80;53.20
50758;DHT22;36732;47.980;11.652;2023-07-09T01:08:05;23.70;53.30
50758;DHT22;36732;47.980;11.652;2023-07-09T01:10:34;23.80;53.40
50758;DHT22;36732;47.980;11.652;2023-07-09T01:12:59;23.70;53.30
50758;DHT22;36732;47.980;11.652;2023-07-09T01:15:25;23.70;53.30
50758;DHT22;36732;47.980;11.652;2023-07-09T01:17:51;23.70;53.30
50758;DHT22;36732;47.980;11.652;2023-07-09T01:20:19;23.70;53.30
50758;DHT22;36732;47.980;11.652;2023-07-09T01:22:48;23.70;53.40
50758;DHT22;36732;47.980;11.652;2023-07-09T01:25:15;23.70;53.50
50758;DHT22;36732;47.980;11.652;2023-07-09T01:27:45;23.60;53.40
50758;DHT22;36732;47.980;11.652;2023-07-09T01:30:16;23.70;53.60
50758;DHT22;36732;47.980;11.652;2023-07-09T01:32:50;23.60;53.40
50758;DHT22;36732;47.980;11.652;2023-07-09T01:35:19;23.60;53.50
50758;DHT22;36732;47.980;11.652;2023-07-09T01:37:46;23.60;53.60
50758;DHT22;36732;47.980;11.652;2023-07-09T01:40:16;23.60;53.50
50758;DHT22;36732;47.980;11.652;2023-07-09T01:42:44;23.50;53.60
50758;DHT22;36732;47.980;11.652;2023-07-09T01:45:10;23.50;53.50
50758;DHT22;36732;47.980;11.652;2023-07-09T01:47:37;23.50;53.50
50758;DHT22;36732;47.980;11.652;2023-07-09T01:50:07;23.50;53.50
50758;DHT22;36732;47.980;11.652;2023-07-09T01:52:35;23.50;54.30
50758;DHT22;36732;47.980;11.652;2023-07-09T01:55:01;23.50;53.70
50758;DHT22;36732;47.980;11.652;2023-07-09T01:57:29;23.50;53.70
50758;DHT22;36732;47.980;11.652;2023-07-09T02:00:03;23.50;53.70
50758;DHT22;36732;47.980;11.652;2023-07-09T02:02:31;23.50;53.70
50758;DHT22;36732;47.980;11.652;2023-07-09T02:04:58;23.50;53.60
50758;DHT22;36732;47.980;11.652;2023-07-09T02:07:25;23.40;53.50
50758;DHT22;36732;47.980;11.652;2023-07-09T02:09:51;23.40;53.50
50758;DHT22;36732;47.980;11.652;2023-07-09T02:12:18;23.40;53.60
50758;DHT22;36732;47.980;11.652;2023-07-09T02:14:45;23.40;53.60
50758;DHT22;36732;47.980;11.652;2023-07-09T02:17:13;23.40;53.60
50758;DHT22;36732;47.980;11.652;2023-07-09T02:19:39;23.40;53.50
50758;DHT22;36732;47.980;11.652;2023-07-09T02:22:06;23.40;53.60
50758;DHT22;36732;47.980;11.652;2023-07-09T02:24:32;23.40;53.70
50758;DHT22;36732;47.980;11.652;2023-07-09T02:27:00;23.40;53.70
50758;DHT22;36732;47.980;11.652;2023-07-09T02:29:28;23.30;53.60
50758;DHT22;36732;47.980;11.652;2023-07-09T02:31:57;23.30;53.70
50758;DHT22;36732;47.980;11.652;2023-07-09T02:34:25;23.30;53.70
50758;DHT22;36732;47.980;11.652;2023-07-09T02:36:52;23.20;53.70
50758;DHT22;36732;47.980;11.652;2023-07-09T02:39:18;23.20;53.70
50758;DHT22;36732;47.980;11.652;2023-07-09T02:41:44;23.30;53.70
50758;DHT22;36732;47.980;11.652;2023-07-09T02:44:10;23.30;53.80
50758;DHT22;36732;47.980;11.652;2023-07-09T02:46:36;23.30;53.80
50758;DHT22;36732;47.980;11.652;2023-07-09T02:49:06;23.20;53.70
50758;DHT22;36732;47.980;11.652;2023-07-09T02:51:38;23.20;53.80
50758;DHT22;36732;47.980;11.652;2023-07-09T02:54:04;23.20;53.70
50758;DHT22;36732;47.980;11.652;2023-07-09T02:56:31;23.10;53.70
50758;DHT22;36732;47.980;11.652;2023-07-09T02:58:57;23.10;53.70
50758;DHT22;36732;47.980;11.652;2023-07-09T03:01:23;23.10;53.80
50758;DHT22;36732;47.980;11.652;2023-07-09T03:03:54;23.10;53.80
50758;DHT22;36732;47.980;11.652;2023-07-09T03:06:21;23.10;53.90
50758;DHT22;36732;47.980;11.652;2023-07-09T03:08:48;23.10;53.80
50758;DHT22;36732;47.980;11.652;2023-07-09T03:11:15;23.10;53.80
50758;DHT22;36732;47.980;11.652;2023-07-09T03:13:42;23.10;53.80
50758;DHT22;36732;47.980;11.652;2023-07-09T03:16:09;23.00;53.80
50758;DHT22;36732;47.980;11.652;2023-07-09T03:18:35;23.00;53.80
50758;DHT22;36732;47.980;11.652;2023-07-09T03:21:01;23.00;53.80
50758;DHT22;36732;47.980;11.652;2023-07-09T03:23:27;23.00;53.90
50758;DHT22;36732;47.980;11.652;2023-07-09T03:25:52;23.00;53.90
50758;DHT22;36732;47.980;11.652;2023-07-09T03:28:18;23.00;53.90
50758;DHT22;36732;47.980;11.652;2023-07-09T03:30:47;23.00;53.90
50758;DHT22;36732;47.980;11.652;2023-07-09T03:33:15;23.00;53.90
50758;DHT22;36732;47.980;11.652;2023-07-09T03:35:42;23.00;53.90
50758;DHT22;36732;47.980;11.652;2023-07-09T03:38:09;23.00;53.90
50758;DHT22;36732;47.980;11.652;2023-07-09T03:40:37;22.90;53.90
50758;DHT22;36732;47.980;11.652;2023-07-09T03:43:03;23.00;53.90
50758;DHT22;36732;47.980;11.652;2023-07-09T03:45:30;22.90;54.00
50758;DHT22;36732;47.980;11.652;2023-07-09T03:47:56;22.90;54.10
50758;DHT22;36732;47.980;11.652;2023-07-09T03:50:22;22.90;54.10
50758;DHT22;36732;47.980;11.652;2023-07-09T03:52:48;22.90;54.20
50758;DHT22;36732;47.980;11.652;2023-07-09T03:55:13;22.90;54.20
50758;DHT22;36732;47.980;11.652;2023-07-09T03:57:40;22.90;54.20
50758;DHT22;36732;47.980;11.652;2023-07-09T04:00:07;22.90;54.20
50758;DHT22;36732;47.980;11.652;2023-07-09T04:02:37;22.90;54.30
50758;DHT22;36732;47.980;11.652;2023-07-09T04:05:04;22.80;54.30
50758;DHT22;36732;47.980;11.652;2023-07-09T04:07:30;22.80;54.40
50758;DHT22;36732;47.980;11.652;2023-07-09T04:09:56;22.80;54.40
50758;DHT22;36732;47.980;11.652;2023-07-09T04:12:21;22.80;54.50
50758;DHT22;36732;47.980;11.652;2023-07-09T04:14:47;22.80;54.60
50758;DHT22;36732;47.980;11.652;2023-07-09T04:17:13;22.80;54.60
50758;DHT22;36732;47.980;11.652;2023-07-09T04:19:39;22.80;54.70
50758;DHT22;36732;47.980;11.652;2023-07-09T04:22:04;22.80;54.70
50758;DHT22;36732;47.980;11.652;2023-07-09T04:24:31;22.80;54.80
50758;DHT22;36732;47.980;11.652;2023-07-09T04:26:58;22.80;54.90
50758;DHT22;36732;47.980;11.652;2023-07-09T04:29:31;22.80;55.00
50758;DHT22;36732;47.980;11.652;2023-07-09T04:32:21;22.80;55.10
50758;DHT22;36732;47.980;11.652;2023-07-09T04:34:48;22.80;55.40
50758;DHT22;36732;47.980;11.652;2023-07-09T04:37:14;22.80;55.20
50758;DHT22;36732;47.980;11.652;2023-07-09T04:39:44;22.80;55.40
50758;DHT22;36732;47.980;11.652;2023-07-09T04:42:15;22.80;55.40
50758;DHT22;36732;47.980;11.652;2023-07-09T04:44:43;22.80;55.70
50758;DHT22;36732;47.980;11.652;2023-07-09T04:47:10;22.80;55.60
50758;DHT22;36732;47.980;11.652;2023-07-09T04:49:37;22.80;55.70
50758;DHT22;36732;47.980;11.652;2023-07-09T04:52:03;22.90;55.90
50758;DHT22;36732;47.980;11.652;2023-07-09T04:54:29;22.90;55.90
50758;DHT22;36732;47.980;11.652;2023-07-09T04:56:55;22.90;55.90
50758;DHT22;36732;47.980;11.652;2023-07-09T04:59:22;22.90;56.00
50758;DHT22;36732;47.980;11.652;2023-07-09T05:01:49;22.90;56.20
50758;DHT22;36732;47.980;11.652;2023-07-09T05:04:15;22.90;56.40
50758;DHT22;36732;47.980;11.652;2023-07-09T05:06:41;22.90;56.40
50758;DHT22;36732;47.980;11.652;2023-07-09T05:09:07;23.00;56.50
50758;DHT22;36732;47.980;11.652;2023-07-09T05:11:35;23.00;56.50
50758;DHT22;36732;47.980;11.652;2023-07-09T05:14:02;23.00;56.60
50758;DHT22;36732;47.980;11.652;2023-07-09T05:16:27;23.00;56.50
50758;DHT22;36732;47.980;11.652;2023-07-09T05:18:53;23.00;56.50
50758;DHT22;36732;47.980;11.652;2023-07-09T05:21:19;23.10;56.40
50758;DHT22;36732;47.980;11.652;2023-07-09T05:23:45;23.10;56.30
50758;DHT22;36732;47.980;11.652;2023-07-09T05:26:11;23.10;56.30
50758;DHT22;36732;47.980;11.652;2023-07-09T05:28:37;23.10;56.30
50758;DHT22;36732;47.980;11.652;2023-07-09T05:31:04;23.20;56.30
50758;DHT22;36732;47.980;11.652;2023-07-09T05:33:30;23.20;56.40
50758;DHT22;36732;47.980;11.652;2023-07-09T05:35:56;23.20;56.40
50758;DHT22;36732;47.980;11.652;2023-07-09T05:38:22;23.20;56.40
50758;DHT22;36732;47.980;11.652;2023-07-09T05:40:47;23.30;56.40
50758;DHT22;36732;47.980;11.652;2023-07-09T05:43:14;23.30;56.40
50758;DHT22;36732;47.980;11.652;2023-07-09T05:45:39;23.40;56.60
50758;DHT22;36732;47.980;11.652;2023-07-09T05:48:05;23.40;56.60
50758;DHT22;36732;47.980;11.652;2023-07-09T05:50:33;23.40;56.70
50758;DHT22;36732;47.980;11.652;2023-07-09T05:53:00;23.50;57.00
50758;DHT22;36732;47.980;11.652;2023-07-09T05:55:26;23.50;57.30
50758;DHT22;36732;47.980;11.652;2023-07-09T05:57:52;23.50;57.40
50758;DHT22;36732;47.980;11.652;2023-07-09T06:00:18;23.70;57.50
50758;DHT22;36732;47.980;11.652;2023-07-09T06:02:44;23.70;57.50
50758;DHT22;36732;47.980;11.652;2023-07-09T06:05:10;23.80;57.30
50758;DHT22;36732;47.980;11.652;2023-07-09T06:07:37;23.90;57.20
50758;DHT22;36732;47.980;11.652;2023-07-09T06:10:06;23.90;56.90
50758;DHT22;36732;47.980;11.652;2023-07-09T06:12:33;24.00;56.80
50758;DHT22;36732;47.980;11.652;2023-07-09T06:14:59;24.00;56.40
50758;DHT22;36732;47.980;11.652;2023-07-09T06:17:25;24.10;56.10
50758;DHT22;36732;47.980;11.652;2023-07-09T06:19:50;24.10;55.80
50758;DHT22;36732;47.980;11.652;2023-07-09T06:22:16;24.10;55.50
50758;DHT22;36732;47.980;11.652;2023-07-09T06:24:42;24.20;55.40
50758;DHT22;36732;47.980;11.652;2023-07-09T06:27:09;24.20;55.30
50758;DHT22;36732;47.980;11.652;2023-07-09T06:29:35;24.30;55.30
50758;DHT22;36732;47.980;11.652;2023-07-09T06:32:00;24.30;55.10
50758;DHT22;36732;47.980;11.652;2023-07-09T06:34:26;24.30;55.10
50758;DHT22;36732;47.980;11.652;2023-07-09T06:36:52;24.30;55.00
50758;DHT22;36732;47.980;11.652;2023-07-09T06:39:18;24.30;54.70
50758;DHT22;36732;47.980;11.652;2023-07-09T06:41:47;24.40;54.50
50758;DHT22;36732;47.980;11.652;2023-07-09T06:44:13;24.40;54.30
50758;DHT22;36732;47.980;11.652;2023-07-09T06:46:39;24.40;54.30
50758;DHT22;36732;47.980;11.652;2023-07-09T06:49:05;24.40;54.20
50758;DHT22;36732;47.980;11.652;2023-07-09T06:51:32;24.40;54.20
50758;DHT22;36732;47.980;11.652;2023-07-09T06:53:58;24.40;54.30
50758;DHT22;36732;47.980;11.652;2023-07-09T06:56:24;24.50;54.50
50758;DHT22;36732;47.980;11.652;2023-07-09T06:58:50;24.50;54.30
50758;DHT22;36732;47.980;11.652;2023-07-09T07:01:16;24.60;54.40
50758;DHT22;36732;47.980;11.652;2023-07-09T07:03:41;24.70;54.50
50758;DHT22;36732;47.980;11.652;2023-07-09T07:06:07;24.70;54.50
50758;DHT22;36732;47.980;11.652;2023-07-09T07:08:34;24.70;54.60
50758;DHT22;36732;47.980;11.652;2023-07-09T07:11:01;24.80;54.40
50758;DHT22;36732;47.980;11.652;2023-07-09T07:13:29;24.90;54.30
50758;DHT22;36732;47.980;11.652;2023-07-09T07:16:01;24.90;54.30
50758;DHT22;36732;47.980;11.652;2023-07-09T07:18:28;25.00;54.00
50758;DHT22;36732;47.980;11.652;2023-07-09T07:20:54;25.00;53.90
50758;DHT22;36732;47.980;11.652;2023-07-09T07:23:20;25.10;53.80
50758;DHT22;36732;47.980;11.652;2023-07-09T07:25:46;25.10;53.80
50758;DHT22;36732;47.980;11.652;2023-07-09T07:28:12;25.20;53.90
50758;DHT22;36732;47.980;11.652;2023-07-09T07:30:38;25.20;53.90
50758;DHT22;36732;47.980;11.652;2023-07-09T07:33:04;25.30;53.90
50758;DHT22;36732;47.980;11.652;2023-07-09T07:35:30;25.30;53.60
50758;DHT22;36732;47.980;11.652;2023-07-09T07:37:55;25.30;53.40
50758;DHT22;36732;47.980;11.652;2023-07-09T07:40:22;25.40;53.30
50758;DHT22;36732;47.980;11.652;2023-07-09T07:42:48;25.40;53.10
50758;DHT22;36732;47.980;11.652;2023-07-09T07:45:13;25.40;52.80
50758;DHT22;36732;47.980;11.652;2023-07-09T07:47:39;25.50;52.80
50758;DHT22;36732;47.980;11.652;2023-07-09T07:50:06;25.50;52.50
50758;DHT22;36732;47.980;11.652;2023-07-09T07:52:33;25.50;52.30
50758;DHT22;36732;47.980;11.652;2023-07-09T07:55:04;25.50;52.30
50758;DHT22;36732;47.980;11.652;2023-07-09T07:57:31;25.50;52.20
50758;DHT22;36732;47.980;11.652;2023-07-09T07:59:56;25.60;52.10
50758;DHT22;36732;47.980;11.652;2023-07-09T08:02:23;25.60;52.00
50758;DHT22;36732;47.980;11.652;2023-07-09T08:04:49;25.60;52.00
50758;DHT22;36732;47.980;11.652;2023-07-09T08:07:17;25.70;52.00
50758;DHT22;36732;47.980;11.652;2023-07-09T08:09:44;25.70;51.70
50758;DHT22;36732;47.980;11.652;2023-07-09T08:12:12;25.70;51.60
50758;DHT22;36732;47.980;11.652;2023-07-09T08:14:42;25.70;51.20
50758;DHT22;36732;47.980;11.652;2023-07-09T08:17:10;25.70;51.00
50758;DHT22;36732;47.980;11.652;2023-07-09T08:19:53;25.70;51.20
50758;DHT22;36732;47.980;11.652;2023-07-09T08:22:20;25.80;51.20
50758;DHT22;36732;47.980;11.652;2023-07-09T08:24:50;25.80;51.20
50758;DHT22;36732;47.980;11.652;2023-07-09T08:27:16;25.80;50.80
50758;DHT22;36732;47.980;11.652;2023-07-09T08:29:42;25.90;50.10
50758;DHT22;36732;47.980;11.652;2023-07-09T08:32:09;25.90;49.40
50758;DHT22;36732;47.980;11.652;2023-07-09T08:34:37;25.90;48.90
50758;DHT22;36732;47.980;11.652;2023-07-09T08:37:05;25.90;48.90
50758;DHT22;36732;47.980;11.652;2023-07-09T08:39:32;25.90;48.90
50758;DHT22;36732;47.980;11.652;2023-07-09T08:44:59;25.90;48.50
50758;DHT22;36732;47.980;11.652;2023-07-09T08:50:19;26.00;48.40
50758;DHT22;36732;47.980;11.652;2023-07-09T08:52:51;26.00;48.00
50758;DHT22;36732;47.980;11.652;2023-07-09T08:55:20;26.10;48.00
50758;DHT22;36732;47.980;11.652;2023-07-09T08:57:59;26.10;47.80
50758;DHT22;36732;47.980;11.652;2023-07-09T09:00:35;26.10;47.80
50758;DHT22;36732;47.980;11.652;2023-07-09T09:03:35;26.10;48.00
50758;DHT22;36732;47.980;11.652;2023-07-09T09:06:10;26.20;47.80
50758;DHT22;36732;47.980;11.652;2023-07-09T09:09:46;26.20;47.60
50758;DHT22;36732;47.980;11.652;2023-07-09T09:11:53;26.20;47.50
50758;DHT22;36732;47.980;11.652;2023-07-09T09:14:37;26.20;47.60
50758;DHT22;36732;47.980;11.652;2023-07-09T09:17:13;26.30;47.60
50758;DHT22;36732;47.980;11.652;2023-07-09T09:22:25;26.30;47.30
50758;DHT22;36732;47.980;11.652;2023-07-09T09:25:16;26.30;47.50
50758;DHT22;36732;47.980;11.652;2023-07-09T09:27:46;26.40;47.30
50758;DHT22;36732;47.980;11.652;2023-07-09T09:30:21;26.40;47.10
50758;DHT22;36732;47.980;11.652;2023-07-09T09:32:55;26.40;47.00
50758;DHT22;36732;47.980;11.652;2023-07-09T09:35:32;26.40;47.10
50758;DHT22;36732;47.980;11.652;2023-07-09T09:38:00;26.40;47.00
50758;DHT22;36732;47.980;11.652;2023-07-09T09:40:29;26.50;47.10
50758;DHT22;36732;47.980;11.652;2023-07-09T09:42:59;26.50;47.10
50758;DHT22;36732;47.980;11.652;2023-07-09T09:45:34;26.50;46.90
50758;DHT22;36732;47.980;11.652;2023-07-09T09:48:13;26.50;46.40
50758;DHT22;36732;47.980;11.652;2023-07-09T09:50:43;26.50;46.30
50758;DHT22;36732;47.980;11.652;2023-07-09T09:53:18;26.60;47.40
50758;DHT22;36732;47.980;11.652;2023-07-09T09:55:47;26.60;46.70
50758;DHT22;36732;47.980;11.652;2023-07-09T09:58:16;26.60;46.70
50758;DHT22;36732;47.980;11.652;2023-07-09T10:00:52;26.60;46.70
50758;DHT22;36732;47.980;11.652;2023-07-09T10:03:20;26.70;46.40
50758;DHT22;36732;47.980;11.652;2023-07-09T10:05:58;26.70;46.40
50758;DHT22;36732;47.980;11.652;2023-07-09T10:08:33;26.70;46.00
50758;DHT22;36732;47.980;11.652;2023-07-09T10:11:24;26.70;46.20
50758;DHT22;36732;47.980;11.652;2023-07-09T10:14:03;26.70;46.00
50758;DHT22;36732;47.980;11.652;2023-07-09T10:16:41;26.80;46.10
50758;DHT22;36732;47.980;11.652;2023-07-09T10:19:21;26.80;46.80
50758;DHT22;36732;47.980;11.652;2023-07-09T10:21:58;26.80;46.30
50758;DHT22;36732;47.980;11.652;2023-07-09T10:33:12;26.90;46.80
50758;DHT22;36732;47.980;11.652;2023-07-09T10:38:47;26.90;46.40
50758;DHT22;36732;47.980;11.652;2023-07-09T10:41:22;26.90;46.30
50758;DHT22;36732;47.980;11.652;2023-07-09T10:44:08;27.00;46.60
50758;DHT22;36732;47.980;11.652;2023-07-09T10:46:39;26.90;46.50
50758;DHT22;36732;47.980;11.652;2023-07-09T10:49:10;27.00;46.40
50758;DHT22;36732;47.980;11.652;2023-07-09T10:51:48;27.00;45.90
50758;DHT22;36732;47.980;11.652;2023-07-09T10:57:29;27.10;46.30
50758;DHT22;36732;47.980;11.652;2023-07-09T10:59:58;27.10;45.70
50758;DHT22;36732;47.980;11.652;2023-07-09T11:02:31;27.10;46.20
50758;DHT22;36732;47.980;11.652;2023-07-09T11:05:03;27.10;45.80
50758;DHT22;36732;47.980;11.652;2023-07-09T11:07:40;27.20;45.80
50758;DHT22;36732;47.980;11.652;2023-07-09T11:10:22;27.20;45.60
50758;DHT22;36732;47.980;11.652;2023-07-09T11:15:55;27.20;45.70
50758;DHT22;36732;47.980;11.652;2023-07-09T11:18:29;27.20;45.90
50758;DHT22;36732;47.980;11.652;2023-07-09T11:21:04;27.20;45.70
50758;DHT22;36732;47.980;11.652;2023-07-09T11:23:50;27.20;45.50
50758;DHT22;36732;47.980;11.652;2023-07-09T11:26:35;27.20;45.40
50758;DHT22;36732;47.980;11.652;2023-07-09T11:31:44;27.30;45.80
50758;DHT22;36732;47.980;11.652;2023-07-09T11:36:57;27.30;45.50
50758;DHT22;36732;47.980;11.652;2023-07-09T11:39:30;27.30;45.50
50758;DHT22;36732;47.980;11.652;2023-07-09T11:42:02;27.30;45.40
50758;DHT22;36732;47.980;11.652;2023-07-09T11:44:31;27.30;45.40
50758;DHT22;36732;47.980;11.652;2023-07-09T11:50:55;27.30;45.50
50758;DHT22;36732;47.980;11.652;2023-07-09T11:53:05;27.40;44.90
50758;DHT22;36732;47.980;11.652;2023-07-09T11:55:46;27.40;44.70
50758;DHT22;36732;47.980;11.652;2023-07-09T11:58:17;27.40;44.80
50758;DHT22;36732;47.980;11.652;2023-07-09T12:00:54;27.40;44.60
50758;DHT22;36732;47.980;11.652;2023-07-09T12:03:39;27.40;44.30
50758;DHT22;36732;47.980;11.652;2023-07-09T12:06:27;27.50;44.60
50758;DHT22;36732;47.980;11.652;2023-07-09T12:08:54;27.50;44.20
50758;DHT22;36732;47.980;11.652;2023-07-09T12:13:51;27.50;44.30
50758;DHT22;36732;47.980;11.652;2023-07-09T12:16:31;27.50;44.30
50758;DHT22;36732;47.980;11.652;2023-07-09T12:18:59;27.50;43.70
50758;DHT22;36732;47.980;11.652;2023-07-09T12:21:26;27.60;44.00
50758;DHT22;36732;47.980;11.652;2023-07-09T12:23:54;27.60;43.90
50758;DHT22;36732;47.980;11.652;2023-07-09T12:26:21;27.60;43.00
50758;DHT22;36732;47.980;11.652;2023-07-09T12:28:54;27.60;43.30
50758;DHT22;36732;47.980;11.652;2023-07-09T12:31:29;27.60;42.50
50758;DHT22;36732;47.980;11.652;2023-07-09T12:33:57;27.70;42.80
50758;DHT22;36732;47.980;11.652;2023-07-09T12:36:25;27.70;43.10
50758;DHT22;36732;47.980;11.652;2023-07-09T12:38:56;27.70;42.90
50758;DHT22;36732;47.980;11.652;2023-07-09T12:41:40;27.70;43.00
50758;DHT22;36732;47.980;11.652;2023-07-09T12:44:18;27.80;42.70
50758;DHT22;36732;47.980;11.652;2023-07-09T12:46:47;27.80;42.80
50758;DHT22;36732;47.980;11.652;2023-07-09T12:49:38;27.80;42.90
50758;DHT22;36732;47.980;11.652;2023-07-09T12:52:20;27.80;42.80
50758;DHT22;36732;47.980;11.652;2023-07-09T12:55:01;27.80;42.70
50758;DHT22;36732;47.980;11.652;2023-07-09T12:57:28;27.80;42.80
50758;DHT22;36732;47.980;11.652;2023-07-09T12:59:56;27.90;42.90
50758;DHT22;36732;47.980;11.652;2023-07-09T13:02:25;27.80;42.60
50758;DHT22;36732;47.980;11.652;2023-07-09T13:05:00;27.90;42.60
50758;DHT22;36732;47.980;11.652;2023-07-09T13:07:38;27.90;42.40
50758;DHT22;36732;47.980;11.652;2023-07-09T13:10:25;27.90;42.20
50758;DHT22;36732;47.980;11.652;2023-07-09T13:12:55;27.90;42.30
50758;DHT22;36732;47.980;11.652;2023-07-09T13:18:03;27.90;42.40
50758;DHT22;36732;47.980;11.652;2023-07-09T13:20:33;28.00;42.30
50758;DHT22;36732;47.980;11.652;2023-07-09T13:23:01;27.90;42.30
50758;DHT22;36732;47.980;11.652;2023-07-09T13:25:27;28.00;42.10
50758;DHT22;36732;47.980;11.652;2023-07-09T13:27:53;28.00;41.70
50758;DHT22;36732;47.980;11.652;2023-07-09T13:30:19;28.00;41.60
50758;DHT22;36732;47.980;11.652;2023-07-09T13:32:46;28.00;41.60
50758;DHT22;36732;47.980;11.652;2023-07-09T13:35:15;28.00;41.60
50758;DHT22;36732;47.980;11.652;2023-07-09T13:37:44;28.10;41.70
50758;DHT22;36732;47.980;11.652;2023-07-09T13:40:12;28.10;41.70
50758;DHT22;36732;47.980;11.652;2023-07-09T13:42:40;28.10;40.90
50758;DHT22;36732;47.980;11.652;2023-07-09T13:45:18;28.20;41.00
50758;DHT22;36732;47.980;11.652;2023-07-09T13:47:45;28.20;40.80
50758;DHT22;36732;47.980;11.652;2023-07-09T13:50:12;28.20;41.30
50758;DHT22;36732;47.980;11.652;2023-07-09T13:52:39;28.30;41.20
50758;DHT22;36732;47.980;11.652;2023-07-09T13:55:08;28.30;41.10
50758;DHT22;36732;47.980;11.652;2023-07-09T13:57:43;28.30;40.80
50758;DHT22;36732;47.980;11.652;2023-07-09T14:00:10;28.30;41.00
50758;DHT22;36732;47.980;11.652;2023-07-09T14:02:37;28.40;41.10
50758;DHT22;36732;47.980;11.652;2023-07-09T14:05:06;28.40;41.00
50758;DHT22;36732;47.980;11.652;2023-07-09T14:07:35;28.40;40.70
50758;DHT22;36732;47.980;11.652;2023-07-09T14:10:05;28.50;40.40
50758;DHT22;36732;47.980;11.652;2023-07-09T14:12:33;28.50;40.40
50758;DHT22;36732;47.980;11.652;2023-07-09T14:15:01;28.50;40.20
50758;DHT22;36732;47.980;11.652;2023-07-09T14:17:28;28.50;40.40
50758;DHT22;36732;47.980;11.652;2023-07-09T14:19:53;28.50;40.40
50758;DHT22;36732;47.980;11.652;2023-07-09T14:22:30;28.60;40.70
50758;DHT22;36732;47.980;11.652;2023-07-09T14:24:58;28.60;39.90
50758;DHT22;36732;47.980;11.652;2023-07-09T14:27:24;28.60;40.20
50758;DHT22;36732;47.980;11.652;2023-07-09T14:29:50;28.60;40.00
50758;DHT22;36732;47.980;11.652;2023-07-09T14:32:32;28.60;39.70
50758;DHT22;36732;47.980;11.652;2023-07-09T14:35:05;28.60;39.20
50758;DHT22;36732;47.980;11.652;2023-07-09T14:37:36;28.70;39.60
50758;DHT22;36732;47.980;11.652;2023-07-09T14:40:02;28.70;39.90
50758;DHT22;36732;47.980;11.652;2023-07-09T14:42:30;28.70;40.20
50758;DHT22;36732;47.980;11.652;2023-07-09T14:44:56;28.70;39.80
50758;DHT22;36732;47.980;11.652;2023-07-09T14:47:22;28.70;39.80
50758;DHT22;36732;47.980;11.652;2023-07-09T14:49:48;28.70;39.80
50758;DHT22;36732;47.980;11.652;2023-07-09T14:52:18;28.70;40.00
50758;DHT22;36732;47.980;11.652;2023-07-09T14:54:46;28.70;39.60
50758;DHT22;36732;47.980;11.652;2023-07-09T14:57:24;28.70;39.40
50758;DHT22;36732;47.980;11.652;2023-07-09T14:59:51;28.80;39.30
50758;DHT22;36732;47.980;11.652;2023-07-09T15:02:34;28.80;39.70
50758;DHT22;36732;47.980;11.652;2023-07-09T15:05:03;28.80;40.20
50758;DHT22;36732;47.980;11.652;2023-07-09T15:07:32;28.80;39.50
50758;DHT22;36732;47.980;11.652;2023-07-09T15:09:59;28.80;39.70
50758;DHT22;36732;47.980;11.652;2023-07-09T15:12:28;28.80;39.60
50758;DHT22;36732;47.980;11.652;2023-07-09T15:15:23;28.80;39.60
50758;DHT22;36732;47.980;11.652;2023-07-09T15:17:47;28.80;39.50
50758;DHT22;36732;47.980;11.652;2023-07-09T15:20:15;28.90;39.80
50758;DHT22;36732;47.980;11.652;2023-07-09T15:22:43;28.90;39.70
50758;DHT22;36732;47.980;11.652;2023-07-09T15:25:30;28.90;39.50
50758;DHT22;36732;47.980;11.652;2023-07-09T15:27:56;28.90;39.40
50758;DHT22;36732;47.980;11.652;2023-07-09T15:30:25;28.90;39.40
50758;DHT22;36732;47.980;11.652;2023-07-09T15:32:56;28.90;39.40
50758;DHT22;36732;47.980;11.652;2023-07-09T15:35:24;28.90;39.40
50758;DHT22;36732;47.980;11.652;2023-07-09T15:37:52;28.90;39.50
50758;DHT22;36732;47.980;11.652;2023-07-09T15:40:23;28.90;39.60
50758;DHT22;36732;47.980;11.652;2023-07-09T15:42:56;28.90;39.60
50758;DHT22;36732;47.980;11.652;2023-07-09T15:45:39;29.00;39.50
50758;DHT22;36732;47.980;11.652;2023-07-09T15:48:22;29.00;39.40
50758;DHT22;36732;47.980;11.652;2023-07-09T15:50:50;29.00;39.20
50758;DHT22;36732;47.980;11.652;2023-07-09T15:53:16;29.00;39.60
50758;DHT22;36732;47.980;11.652;2023-07-09T15:55:42;29.00;39.50
50758;DHT22;36732;47.980;11.652;2023-07-09T15:58:16;29.00;39.60
50758;DHT22;36732;47.980;11.652;2023-07-09T16:00:45;29.00;39.10
50758;DHT22;36732;47.980;11.652;2023-07-09T16:03:11;29.00;39.00
50758;DHT22;36732;47.980;11.652;2023-07-09T16:05:38;29.00;39.20
50758;DHT22;36732;47.980;11.652;2023-07-09T16:08:04;29.00;39.20
50758;DHT22;36732;47.980;11.652;2023-07-09T16:10:30;29.00;39.20
50758;DHT22;36732;47.980;11.652;2023-07-09T16:12:57;29.00;39.10